AAL1893 KDCA-KBOS
Flight info
| Callsign | AAL1893 |
|---|---|
| Flight time | 1h 15m |
| Altitude | 37000 |
| Route | SOOKI6 SWANN BROSS Q419 JFK ROBUC3 |
| Aircraft | A319/M-SDE3FGHIRWY/LB1 |
Departure
| Time | 2026-05-05 23:35 |
|---|---|
| Airport | Ronald Reagan Washington National Airport (KDCA) |
Arrival
| Time | 2026-05-06 00:51 |
|---|---|
| Airport | Boston Logan International Airport (KBOS) |
| Time | Latitude | Longitude | Altitude | Speed | Heading |
|---|---|---|---|---|---|
| 2026-05-05 23:19 | 38.85466 | -77.04146 | 24 ft | 0 kts | 172° |
| 2026-05-05 23:27 | 38.85479 | -77.04148 | 26 ft | 4 kts | 166° |
| 2026-05-05 23:27 | 38.85502 | -77.04160 | 26 ft | 4 kts | 137° |
| 2026-05-05 23:27 | 38.85513 | -77.04184 | 27 ft | 3 kts | 77° |
| 2026-05-05 23:28 | 38.85511 | -77.04194 | 29 ft | 0 kts | 73° |
| 2026-05-05 23:31 | 38.85517 | -77.04167 | 28 ft | 7 kts | 73° |
| 2026-05-05 23:31 | 38.85536 | -77.04093 | 24 ft | 5 kts | 72° |
| 2026-05-05 23:32 | 38.85551 | -77.04050 | 24 ft | 7 kts | 53° |
| 2026-05-05 23:32 | 38.85596 | -77.04036 | 25 ft | 7 kts | 352° |
| 2026-05-05 23:32 | 38.85645 | -77.04041 | 30 ft | 7 kts | 358° |
| 2026-05-05 23:32 | 38.85692 | -77.04021 | 26 ft | 8 kts | 52° |
| 2026-05-05 23:33 | 38.85739 | -77.03973 | 25 ft | 10 kts | 359° |
| 2026-05-05 23:33 | 38.85811 | -77.03983 | 27 ft | 11 kts | 353° |
| 2026-05-05 23:33 | 38.85898 | -77.03989 | 25 ft | 14 kts | 358° |
| 2026-05-05 23:33 | 38.85974 | -77.03967 | 24 ft | 11 kts | 17° |
| 2026-05-05 23:34 | 38.86056 | -77.03938 | 21 ft | 11 kts | 15° |
| 2026-05-05 23:34 | 38.86088 | -77.03898 | 20 ft | 6 kts | 87° |
| 2026-05-05 23:34 | 38.86071 | -77.03870 | 22 ft | 6 kts | 151° |
| 2026-05-05 23:34 | 38.85950 | -77.03856 | 24 ft | 40 kts | 176° |
| 2026-05-05 23:35 | 38.85473 | -77.03809 | 23 ft | 97 kts | 175° |
| 2026-05-05 23:35 | 38.84634 | -77.03727 | 61 ft | 141 kts | 177° |
| 2026-05-05 23:35 | 38.83700 | -77.03632 | 672 ft | 136 kts | 176° |
| 2026-05-05 23:35 | 38.82761 | -77.03451 | 1233 ft | 136 kts | 177° |
| 2026-05-05 23:36 | 38.81830 | -77.03250 | 1871 ft | 136 kts | 180° |
| 2026-05-05 23:36 | 38.80842 | -77.03046 | 2232 ft | 151 kts | 180° |
| 2026-05-05 23:36 | 38.79753 | -77.02824 | 2608 ft | 165 kts | 178° |
| 2026-05-05 23:36 | 38.78560 | -77.02575 | 2969 ft | 184 kts | 177° |
| 2026-05-05 23:37 | 38.77221 | -77.02291 | 3343 ft | 208 kts | 176° |
| 2026-05-05 23:37 | 38.75839 | -77.01427 | 3842 ft | 242 kts | 141° |
| 2026-05-05 23:37 | 38.75001 | -76.99395 | 4413 ft | 279 kts | 110° |
| 2026-05-05 23:37 | 38.74757 | -76.96856 | 5240 ft | 294 kts | 96° |
| 2026-05-05 23:38 | 38.75184 | -76.94238 | 6151 ft | 308 kts | 69° |
| 2026-05-05 23:38 | 38.76297 | -76.91876 | 7069 ft | 313 kts | 52° |
| 2026-05-05 23:38 | 38.77823 | -76.89863 | 7947 ft | 316 kts | 37° |
| 2026-05-05 23:38 | 38.79649 | -76.88302 | 8868 ft | 316 kts | 28° |
| 2026-05-05 23:39 | 38.81500 | -76.86833 | 9804 ft | 317 kts | 28° |
| 2026-05-05 23:39 | 38.83395 | -76.85343 | 10468 ft | 327 kts | 27° |
| 2026-05-05 23:39 | 38.85402 | -76.83779 | 10747 ft | 350 kts | 28° |
| 2026-05-05 23:39 | 38.87385 | -76.81850 | 11238 ft | 365 kts | 40° |
| 2026-05-05 23:40 | 38.89275 | -76.79641 | 11933 ft | 370 kts | 39° |
| 2026-05-05 23:40 | 38.91197 | -76.77413 | 12657 ft | 374 kts | 39° |
| 2026-05-05 23:40 | 38.93149 | -76.75162 | 13384 ft | 378 kts | 39° |
| 2026-05-05 23:40 | 38.95121 | -76.72887 | 14062 ft | 382 kts | 39° |
| 2026-05-05 23:41 | 38.97110 | -76.70591 | 14679 ft | 386 kts | 39° |
| 2026-05-05 23:41 | 38.99116 | -76.68269 | 15300 ft | 390 kts | 39° |
| 2026-05-05 23:41 | 39.01141 | -76.65916 | 15926 ft | 394 kts | 40° |
| 2026-05-05 23:41 | 39.03149 | -76.63486 | 16546 ft | 399 kts | 42° |
| 2026-05-05 23:42 | 39.05140 | -76.60967 | 17165 ft | 403 kts | 43° |
| 2026-05-05 23:42 | 39.07129 | -76.58387 | 17736 ft | 408 kts | 44° |
| 2026-05-05 23:42 | 39.09090 | -76.55725 | 18310 ft | 413 kts | 50° |
| 2026-05-05 23:42 | 39.10714 | -76.52659 | 18822 ft | 417 kts | 61° |
| 2026-05-05 23:43 | 39.11883 | -76.49285 | 19344 ft | 420 kts | 72° |
| 2026-05-05 23:43 | 39.12580 | -76.45630 | 19880 ft | 422 kts | 83° |
| 2026-05-05 23:43 | 39.13014 | -76.41882 | 20443 ft | 425 kts | 84° |
| 2026-05-05 23:43 | 39.13448 | -76.38098 | 20989 ft | 428 kts | 84° |
| 2026-05-05 23:44 | 39.13880 | -76.34291 | 21518 ft | 431 kts | 84° |
| 2026-05-05 23:44 | 39.14308 | -76.30461 | 22038 ft | 434 kts | 84° |
| 2026-05-05 23:44 | 39.14737 | -76.26585 | 22555 ft | 438 kts | 84° |
| 2026-05-05 23:44 | 39.15169 | -76.22687 | 23056 ft | 441 kts | 84° |
| 2026-05-05 23:45 | 39.15609 | -76.18760 | 23534 ft | 444 kts | 84° |
| 2026-05-05 23:45 | 39.16063 | -76.14806 | 23946 ft | 447 kts | 84° |
| 2026-05-05 23:45 | 39.16523 | -76.10843 | 24382 ft | 448 kts | 83° |
| 2026-05-05 23:45 | 39.16987 | -76.06848 | 24649 ft | 455 kts | 83° |
| 2026-05-05 23:46 | 39.17454 | -76.02755 | 24787 ft | 465 kts | 83° |
| 2026-05-05 23:46 | 39.17927 | -75.98592 | 24889 ft | 474 kts | 83° |
| 2026-05-05 23:46 | 39.18566 | -75.94383 | 24909 ft | 486 kts | 75° |
| 2026-05-05 23:46 | 39.19769 | -75.90266 | 24909 ft | 494 kts | 64° |
| 2026-05-05 23:47 | 39.21530 | -75.86451 | 24909 ft | 495 kts | 53° |
| 2026-05-05 23:47 | 39.23742 | -75.83128 | 24908 ft | 495 kts | 43° |
| 2026-05-05 23:47 | 39.26325 | -75.80212 | 24906 ft | 494 kts | 38° |
| 2026-05-05 23:47 | 39.28945 | -75.77330 | 24900 ft | 494 kts | 40° |
| 2026-05-05 23:48 | 39.31311 | -75.74105 | 25048 ft | 496 kts | 46° |
| 2026-05-05 23:48 | 39.33618 | -75.70792 | 25325 ft | 496 kts | 46° |
| 2026-05-05 23:48 | 39.35940 | -75.67474 | 25613 ft | 498 kts | 46° |
| 2026-05-05 23:48 | 39.38263 | -75.64155 | 25891 ft | 500 kts | 46° |
| 2026-05-05 23:49 | 39.40600 | -75.60806 | 26164 ft | 502 kts | 46° |
| 2026-05-05 23:49 | 39.42921 | -75.57467 | 26705 ft | 497 kts | 46° |
| 2026-05-05 23:49 | 39.45223 | -75.54145 | 27142 ft | 495 kts | 46° |
| 2026-05-05 23:49 | 39.47516 | -75.50824 | 27504 ft | 496 kts | 46° |
| 2026-05-05 23:50 | 39.49814 | -75.47491 | 27822 ft | 497 kts | 46° |
| 2026-05-05 23:50 | 39.52125 | -75.44139 | 28123 ft | 499 kts | 46° |
| 2026-05-05 23:50 | 39.54435 | -75.40790 | 28443 ft | 499 kts | 45° |
| 2026-05-05 23:50 | 39.56735 | -75.37452 | 28939 ft | 496 kts | 45° |
| 2026-05-05 23:51 | 39.59040 | -75.34107 | 29276 ft | 497 kts | 45° |
| 2026-05-05 23:51 | 39.61347 | -75.30755 | 29628 ft | 498 kts | 45° |
| 2026-05-05 23:51 | 39.63615 | -75.27454 | 30045 ft | 496 kts | 45° |
| 2026-05-05 23:51 | 39.65902 | -75.24122 | 30432 ft | 494 kts | 45° |
| 2026-05-05 23:52 | 39.68189 | -75.20788 | 30813 ft | 493 kts | 45° |
| 2026-05-05 23:52 | 39.70464 | -75.17467 | 31205 ft | 491 kts | 44° |
| 2026-05-05 23:52 | 39.72727 | -75.14159 | 31605 ft | 489 kts | 44° |
| 2026-05-05 23:52 | 39.74989 | -75.10848 | 32009 ft | 487 kts | 44° |
| 2026-05-05 23:53 | 39.77233 | -75.07559 | 32414 ft | 486 kts | 44° |
| 2026-05-05 23:53 | 39.79475 | -75.04272 | 32859 ft | 483 kts | 43° |
| 2026-05-05 23:53 | 39.81688 | -75.01020 | 33380 ft | 479 kts | 43° |
| 2026-05-05 23:53 | 39.83889 | -74.97777 | 33859 ft | 476 kts | 43° |
| 2026-05-05 23:54 | 39.86076 | -74.94554 | 34249 ft | 474 kts | 43° |
| 2026-05-05 23:54 | 39.88251 | -74.91344 | 34596 ft | 473 kts | 43° |
| 2026-05-05 23:54 | 39.90426 | -74.88135 | 34846 ft | 473 kts | 43° |
| 2026-05-05 23:54 | 39.92611 | -74.84915 | 34918 ft | 473 kts | 43° |
| 2026-05-05 23:55 | 39.96978 | -74.78482 | 34906 ft | 474 kts | 43° |
| 2026-05-05 23:55 | 40.01294 | -74.72097 | 34905 ft | 474 kts | 43° |
| 2026-05-05 23:56 | 40.05661 | -74.65609 | 34906 ft | 474 kts | 43° |
| 2026-05-05 23:56 | 40.10000 | -74.59137 | 34896 ft | 474 kts | 43° |
| 2026-05-05 23:57 | 40.14353 | -74.52647 | 34872 ft | 475 kts | 43° |
| 2026-05-05 23:57 | 40.18710 | -74.46145 | 34899 ft | 475 kts | 43° |
| 2026-05-05 23:58 | 40.23057 | -74.39643 | 34902 ft | 475 kts | 43° |
| 2026-05-05 23:58 | 40.27331 | -74.33225 | 34910 ft | 475 kts | 43° |
| 2026-05-05 23:59 | 40.31681 | -74.26693 | 34910 ft | 476 kts | 44° |
| 2026-05-05 23:59 | 40.36015 | -74.20170 | 34908 ft | 477 kts | 44° |
| 2026-05-06 00:00 | 40.40366 | -74.13604 | 34903 ft | 477 kts | 44° |
| 2026-05-06 00:00 | 40.44713 | -74.07016 | 34886 ft | 477 kts | 44° |
| 2026-05-06 00:01 | 40.49069 | -74.00410 | 34893 ft | 478 kts | 44° |
| 2026-05-06 00:01 | 40.53395 | -73.93836 | 34912 ft | 478 kts | 44° |
| 2026-05-06 00:02 | 40.57738 | -73.87224 | 34418 ft | 478 kts | 44° |
| 2026-05-06 00:02 | 40.59919 | -73.83897 | 33547 ft | 484 kts | 44° |
| 2026-05-06 00:02 | 40.62114 | -73.80548 | 33063 ft | 482 kts | 44° |
| 2026-05-06 00:03 | 40.64299 | -73.77208 | 32493 ft | 483 kts | 44° |
| 2026-05-06 00:03 | 40.66500 | -73.73842 | 31931 ft | 485 kts | 45° |
| 2026-05-06 00:03 | 40.68700 | -73.70473 | 31356 ft | 487 kts | 45° |
| 2026-05-06 00:03 | 40.70913 | -73.67079 | 30775 ft | 489 kts | 45° |
| 2026-05-06 00:04 | 40.73128 | -73.63675 | 30176 ft | 489 kts | 46° |
| 2026-05-06 00:04 | 40.75341 | -73.60264 | 29561 ft | 487 kts | 46° |
| 2026-05-06 00:04 | 40.77528 | -73.56887 | 28912 ft | 483 kts | 46° |
| 2026-05-06 00:04 | 40.79706 | -73.53526 | 28215 ft | 480 kts | 46° |
| 2026-05-06 00:05 | 40.84026 | -73.46879 | 27053 ft | 474 kts | 47° |
| 2026-05-06 00:05 | 40.86107 | -73.43673 | 26839 ft | 473 kts | 46° |
| 2026-05-06 00:05 | 40.88270 | -73.40402 | 26893 ft | 473 kts | 46° |
| 2026-05-06 00:06 | 40.90449 | -73.37175 | 26678 ft | 469 kts | 45° |
| 2026-05-06 00:06 | 40.92627 | -73.33986 | 26069 ft | 465 kts | 45° |
| 2026-05-06 00:06 | 40.94797 | -73.30816 | 25441 ft | 462 kts | 45° |
| 2026-05-06 00:06 | 40.96933 | -73.27685 | 24869 ft | 457 kts | 45° |
| 2026-05-06 00:07 | 40.99052 | -73.24562 | 24280 ft | 453 kts | 45° |
| 2026-05-06 00:07 | 41.01147 | -73.21463 | 23687 ft | 450 kts | 46° |
| 2026-05-06 00:07 | 41.03219 | -73.18384 | 23096 ft | 447 kts | 46° |
| 2026-05-06 00:07 | 41.05258 | -73.15343 | 22865 ft | 447 kts | 46° |
| 2026-05-06 00:08 | 41.07321 | -73.12262 | 22898 ft | 448 kts | 46° |
| 2026-05-06 00:08 | 41.09390 | -73.09175 | 22901 ft | 448 kts | 46° |
| 2026-05-06 00:08 | 41.11469 | -73.06081 | 22909 ft | 448 kts | 46° |
| 2026-05-06 00:08 | 41.13541 | -73.02993 | 22918 ft | 448 kts | 46° |
| 2026-05-06 00:09 | 41.15607 | -72.99899 | 22916 ft | 449 kts | 46° |
| 2026-05-06 00:09 | 41.17681 | -72.96787 | 22915 ft | 449 kts | 46° |
| 2026-05-06 00:09 | 41.19748 | -72.93680 | 22912 ft | 449 kts | 46° |
| 2026-05-06 00:09 | 41.21583 | -72.90334 | 22912 ft | 451 kts | 58° |
| 2026-05-06 00:10 | 41.23041 | -72.86628 | 22920 ft | 452 kts | 62° |
| 2026-05-06 00:10 | 41.24468 | -72.82902 | 22909 ft | 452 kts | 62° |
| 2026-05-06 00:10 | 41.25894 | -72.79180 | 22909 ft | 452 kts | 61° |
| 2026-05-06 00:10 | 41.27318 | -72.75456 | 22910 ft | 452 kts | 62° |
| 2026-05-06 00:11 | 41.28743 | -72.71718 | 22912 ft | 452 kts | 62° |
| 2026-05-06 00:11 | 41.30159 | -72.67996 | 22943 ft | 453 kts | 62° |
| 2026-05-06 00:11 | 41.31586 | -72.64245 | 22930 ft | 454 kts | 62° |
| 2026-05-06 00:11 | 41.33013 | -72.60496 | 22935 ft | 454 kts | 62° |
| 2026-05-06 00:12 | 41.34438 | -72.56742 | 22941 ft | 454 kts | 62° |
| 2026-05-06 00:12 | 41.35861 | -72.52997 | 22936 ft | 454 kts | 62° |
| 2026-05-06 00:12 | 41.37266 | -72.49289 | 22930 ft | 454 kts | 62° |
| 2026-05-06 00:12 | 41.38685 | -72.45535 | 22925 ft | 454 kts | 62° |
| 2026-05-06 00:13 | 41.40105 | -72.41777 | 22929 ft | 454 kts | 62° |
| 2026-05-06 00:13 | 41.41523 | -72.38030 | 22939 ft | 454 kts | 62° |
| 2026-05-06 00:13 | 41.42938 | -72.34272 | 22934 ft | 454 kts | 62° |
| 2026-05-06 00:13 | 41.44351 | -72.30510 | 22901 ft | 453 kts | 62° |
| 2026-05-06 00:14 | 41.45761 | -72.26744 | 22897 ft | 453 kts | 62° |
| 2026-05-06 00:14 | 41.47173 | -72.22969 | 22895 ft | 454 kts | 62° |
| 2026-05-06 00:14 | 41.48582 | -72.19200 | 22885 ft | 455 kts | 62° |
| 2026-05-06 00:14 | 41.49984 | -72.15414 | 22710 ft | 456 kts | 62° |
| 2026-05-06 00:15 | 41.51372 | -72.11625 | 22265 ft | 451 kts | 62° |
| 2026-05-06 00:15 | 41.52743 | -72.07856 | 22046 ft | 450 kts | 62° |
| 2026-05-06 00:15 | 41.54106 | -72.04099 | 21796 ft | 449 kts | 63° |
| 2026-05-06 00:15 | 41.55465 | -72.00358 | 21553 ft | 447 kts | 63° |
| 2026-05-06 00:16 | 41.56752 | -71.96586 | 21307 ft | 446 kts | 65° |
| 2026-05-06 00:16 | 41.57941 | -71.92758 | 21078 ft | 445 kts | 67° |
| 2026-05-06 00:16 | 41.59047 | -71.88968 | 20816 ft | 444 kts | 68° |
| 2026-05-06 00:16 | 41.60146 | -71.85110 | 20575 ft | 442 kts | 68° |
| 2026-05-06 00:17 | 41.61234 | -71.81284 | 20331 ft | 441 kts | 68° |
| 2026-05-06 00:17 | 41.62332 | -71.77461 | 20084 ft | 439 kts | 68° |
| 2026-05-06 00:17 | 41.63434 | -71.73664 | 19826 ft | 437 kts | 68° |
| 2026-05-06 00:17 | 41.64541 | -71.69883 | 19603 ft | 435 kts | 68° |
| 2026-05-06 00:18 | 41.65651 | -71.66115 | 19383 ft | 433 kts | 68° |
| 2026-05-06 00:18 | 41.66736 | -71.62431 | 19217 ft | 420 kts | 68° |
| 2026-05-06 00:18 | 41.67767 | -71.58927 | 19079 ft | 397 kts | 68° |
| 2026-05-06 00:18 | 41.68759 | -71.55555 | 18662 ft | 384 kts | 68° |
| 2026-05-06 00:19 | 41.69723 | -71.52263 | 18072 ft | 376 kts | 69° |
| 2026-05-06 00:19 | 41.70669 | -71.49026 | 17539 ft | 372 kts | 69° |
| 2026-05-06 00:19 | 41.71608 | -71.45808 | 17072 ft | 370 kts | 69° |
| 2026-05-06 00:19 | 41.72605 | -71.42653 | 16735 ft | 367 kts | 62° |
| 2026-05-06 00:20 | 41.73848 | -71.39698 | 16286 ft | 365 kts | 59° |
| 2026-05-06 00:20 | 41.75111 | -71.36753 | 15836 ft | 364 kts | 59° |
| 2026-05-06 00:20 | 41.76373 | -71.33814 | 15381 ft | 363 kts | 59° |
| 2026-05-06 00:20 | 41.77629 | -71.30890 | 14934 ft | 361 kts | 59° |
| 2026-05-06 00:21 | 41.78867 | -71.28008 | 14487 ft | 360 kts | 59° |
| 2026-05-06 00:21 | 41.79705 | -71.26050 | 14232 ft | 358 kts | 59° |
| 2026-05-06 00:21 | 41.81336 | -71.22211 | 13774 ft | 353 kts | 59° |
| 2026-05-06 00:21 | 41.82141 | -71.20307 | 13609 ft | 345 kts | 59° |
| 2026-05-06 00:22 | 41.83696 | -71.16635 | 12807 ft | 339 kts | 59° |
| 2026-05-06 00:22 | 41.84856 | -71.13906 | 12315 ft | 336 kts | 59° |
| 2026-05-06 00:22 | 41.85634 | -71.12078 | 12049 ft | 336 kts | 59° |
| 2026-05-06 00:22 | 41.86778 | -71.09411 | 11889 ft | 332 kts | 59° |
| 2026-05-06 00:23 | 41.87951 | -71.06703 | 11753 ft | 331 kts | 59° |
| 2026-05-06 00:23 | 41.89092 | -71.04074 | 11599 ft | 330 kts | 59° |
| 2026-05-06 00:23 | 41.90247 | -71.01410 | 11463 ft | 330 kts | 59° |
| 2026-05-06 00:23 | 41.91398 | -70.98750 | 11316 ft | 329 kts | 59° |
| 2026-05-06 00:24 | 41.92543 | -70.96101 | 11166 ft | 328 kts | 59° |
| 2026-05-06 00:24 | 41.93688 | -70.93445 | 11022 ft | 328 kts | 59° |
| 2026-05-06 00:24 | 41.94828 | -70.90792 | 10869 ft | 327 kts | 59° |
| 2026-05-06 00:24 | 41.95963 | -70.88150 | 10725 ft | 327 kts | 59° |
| 2026-05-06 00:25 | 41.97098 | -70.85504 | 10575 ft | 327 kts | 59° |
| 2026-05-06 00:25 | 41.98231 | -70.82857 | 10435 ft | 327 kts | 59° |
| 2026-05-06 00:25 | 41.99360 | -70.80215 | 10291 ft | 326 kts | 59° |
| 2026-05-06 00:25 | 42.00491 | -70.77567 | 10148 ft | 325 kts | 59° |
| 2026-05-06 00:26 | 42.01810 | -70.75128 | 9927 ft | 323 kts | 46° |
| 2026-05-06 00:26 | 42.03315 | -70.72879 | 9575 ft | 321 kts | 46° |
| 2026-05-06 00:26 | 42.04811 | -70.70644 | 9264 ft | 320 kts | 46° |
| 2026-05-06 00:26 | 42.06298 | -70.68424 | 8959 ft | 319 kts | 46° |
| 2026-05-06 00:27 | 42.07763 | -70.66234 | 8660 ft | 319 kts | 46° |
| 2026-05-06 00:27 | 42.09252 | -70.64026 | 8356 ft | 318 kts | 43° |
| 2026-05-06 00:27 | 42.10976 | -70.62203 | 8058 ft | 312 kts | 26° |
| 2026-05-06 00:27 | 42.12942 | -70.61057 | 7769 ft | 305 kts | 10° |
| 2026-05-06 00:28 | 42.14998 | -70.60451 | 7482 ft | 302 kts | 5° |
| 2026-05-06 00:28 | 42.17057 | -70.59885 | 7205 ft | 302 kts | 5° |
| 2026-05-06 00:28 | 42.19110 | -70.59317 | 6889 ft | 300 kts | 5° |
| 2026-05-06 00:28 | 42.21152 | -70.58747 | 6600 ft | 300 kts | 5° |
| 2026-05-06 00:29 | 42.23192 | -70.58176 | 6317 ft | 299 kts | 5° |
| 2026-05-06 00:29 | 42.25232 | -70.57605 | 6000 ft | 299 kts | 5° |
| 2026-05-06 00:29 | 42.27262 | -70.57038 | 5723 ft | 297 kts | 5° |
| 2026-05-06 00:29 | 42.29295 | -70.56479 | 5440 ft | 296 kts | 3° |
| 2026-05-06 00:30 | 42.31306 | -70.56407 | 5161 ft | 284 kts | 344° |
| 2026-05-06 00:30 | 42.33165 | -70.57107 | 5009 ft | 271 kts | 327° |
| 2026-05-06 00:30 | 42.34736 | -70.58410 | 5013 ft | 261 kts | 311° |
| 2026-05-06 00:30 | 42.36041 | -70.60077 | 5035 ft | 258 kts | 307° |
| 2026-05-06 00:31 | 42.37323 | -70.61762 | 5010 ft | 257 kts | 307° |
| 2026-05-06 00:31 | 42.38587 | -70.63425 | 5008 ft | 257 kts | 307° |
| 2026-05-06 00:31 | 42.39880 | -70.65101 | 5007 ft | 257 kts | 308° |
| 2026-05-06 00:31 | 42.41178 | -70.66774 | 4996 ft | 257 kts | 308° |
| 2026-05-06 00:32 | 42.42470 | -70.68442 | 4996 ft | 257 kts | 308° |
| 2026-05-06 00:32 | 42.43762 | -70.70114 | 4996 ft | 256 kts | 308° |
| 2026-05-06 00:32 | 42.45047 | -70.71782 | 4997 ft | 256 kts | 308° |
| 2026-05-06 00:32 | 42.46330 | -70.73447 | 4996 ft | 256 kts | 308° |
| 2026-05-06 00:33 | 42.47621 | -70.75124 | 4994 ft | 256 kts | 308° |
| 2026-05-06 00:33 | 42.48908 | -70.76795 | 4995 ft | 256 kts | 308° |
| 2026-05-06 00:33 | 42.50164 | -70.78416 | 4960 ft | 243 kts | 308° |
| 2026-05-06 00:33 | 42.51362 | -70.79938 | 4833 ft | 227 kts | 308° |
| 2026-05-06 00:34 | 42.52506 | -70.81351 | 4531 ft | 219 kts | 308° |
| 2026-05-06 00:34 | 42.53628 | -70.82720 | 4128 ft | 216 kts | 308° |
| 2026-05-06 00:34 | 42.54677 | -70.84133 | 3742 ft | 214 kts | 299° |
| 2026-05-06 00:34 | 42.55578 | -70.85745 | 3377 ft | 215 kts | 296° |
| 2026-05-06 00:35 | 42.56379 | -70.87441 | 3000 ft | 207 kts | 281° |
| 2026-05-06 00:35 | 42.56459 | -70.89235 | 2649 ft | 192 kts | 251° |
| 2026-05-06 00:35 | 42.55819 | -70.90777 | 2301 ft | 189 kts | 225° |
| 2026-05-06 00:35 | 42.54700 | -70.91671 | 2073 ft | 189 kts | 204° |
| 2026-05-06 00:36 | 42.53495 | -70.92249 | 2003 ft | 177 kts | 205° |
| 2026-05-06 00:36 | 42.52409 | -70.92776 | 1994 ft | 162 kts | 205° |
| 2026-05-06 00:36 | 42.51386 | -70.93274 | 2024 ft | 151 kts | 207° |
| 2026-05-06 00:36 | 42.50418 | -70.93746 | 2002 ft | 146 kts | 206° |
| 2026-05-06 00:37 | 42.49463 | -70.94213 | 2006 ft | 146 kts | 206° |
| 2026-05-06 00:37 | 42.48512 | -70.94676 | 1998 ft | 146 kts | 206° |
| 2026-05-06 00:37 | 42.47554 | -70.95141 | 1974 ft | 142 kts | 205° |
| 2026-05-06 00:37 | 42.46629 | -70.95590 | 1875 ft | 137 kts | 205° |
| 2026-05-06 00:38 | 42.45763 | -70.96010 | 1735 ft | 128 kts | 206° |
| 2026-05-06 00:38 | 42.44957 | -70.96401 | 1608 ft | 119 kts | 205° |
| 2026-05-06 00:38 | 42.44183 | -70.96778 | 1441 ft | 120 kts | 204° |
| 2026-05-06 00:38 | 42.43402 | -70.97157 | 1284 ft | 118 kts | 204° |
| 2026-05-06 00:39 | 42.42628 | -70.97534 | 1131 ft | 118 kts | 203° |
| 2026-05-06 00:39 | 42.41857 | -70.97908 | 966 ft | 118 kts | 202° |
| 2026-05-06 00:39 | 42.41067 | -70.98291 | 819 ft | 119 kts | 201° |
| 2026-05-06 00:39 | 42.40287 | -70.98669 | 658 ft | 121 kts | 200° |
| 2026-05-06 00:40 | 42.39503 | -70.99056 | 597 ft | 122 kts | 202° |
| 2026-05-06 00:40 | 42.38705 | -70.99422 | 1185 ft | 118 kts | 202° |
| 2026-05-06 00:40 | 42.37904 | -70.99748 | 1912 ft | 126 kts | 204° |
| 2026-05-06 00:40 | 42.37034 | -71.00072 | 2562 ft | 134 kts | 206° |
| 2026-05-06 00:41 | 42.36024 | -71.00274 | 2866 ft | 170 kts | 185° |
| 2026-05-06 00:41 | 42.34800 | -70.99454 | 3107 ft | 225 kts | 147° |
| 2026-05-06 00:41 | 42.33937 | -70.97557 | 3298 ft | 250 kts | 114° |
| 2026-05-06 00:41 | 42.33881 | -70.95198 | 3472 ft | 258 kts | 83° |
| 2026-05-06 00:42 | 42.34313 | -70.92830 | 3725 ft | 260 kts | 77° |
| 2026-05-06 00:42 | 42.34814 | -70.90472 | 3929 ft | 260 kts | 76° |
| 2026-05-06 00:42 | 42.35312 | -70.88153 | 4001 ft | 260 kts | 75° |
| 2026-05-06 00:42 | 42.36168 | -70.86016 | 4003 ft | 259 kts | 43° |
| 2026-05-06 00:43 | 42.37573 | -70.84534 | 4008 ft | 255 kts | 28° |
| 2026-05-06 00:43 | 42.39067 | -70.83253 | 4003 ft | 254 kts | 26° |
| 2026-05-06 00:43 | 42.40599 | -70.82087 | 4018 ft | 248 kts | 11° |
| 2026-05-06 00:43 | 42.42242 | -70.81802 | 4014 ft | 234 kts | 349° |
| 2026-05-06 00:44 | 42.43855 | -70.81906 | 4004 ft | 231 kts | 346° |
| 2026-05-06 00:44 | 42.45471 | -70.82046 | 3997 ft | 232 kts | 346° |
| 2026-05-06 00:44 | 42.47070 | -70.82257 | 3978 ft | 225 kts | 335° |
| 2026-05-06 00:44 | 42.48309 | -70.83182 | 3861 ft | 188 kts | 303° |
| 2026-05-06 00:45 | 42.49120 | -70.84432 | 3608 ft | 174 kts | 297° |
| 2026-05-06 00:45 | 42.49827 | -70.85726 | 3317 ft | 165 kts | 285° |
| 2026-05-06 00:45 | 42.50217 | -70.87147 | 3046 ft | 158 kts | 276° |
| 2026-05-06 00:45 | 42.50530 | -70.88573 | 3003 ft | 157 kts | 276° |
| 2026-05-06 00:46 | 42.50822 | -70.89931 | 3045 ft | 144 kts | 276° |
| 2026-05-06 00:46 | 42.51078 | -70.91216 | 2999 ft | 136 kts | 268° |
| 2026-05-06 00:46 | 42.50848 | -70.92354 | 2885 ft | 123 kts | 240° |
| 2026-05-06 00:46 | 42.50400 | -70.93326 | 2620 ft | 120 kts | 236° |
| 2026-05-06 00:47 | 42.49773 | -70.94070 | 2485 ft | 129 kts | 209° |
| 2026-05-06 00:47 | 42.48854 | -70.94510 | 2346 ft | 146 kts | 207° |
| 2026-05-06 00:47 | 42.47892 | -70.94978 | 2166 ft | 147 kts | 206° |
| 2026-05-06 00:47 | 42.46933 | -70.95444 | 1990 ft | 146 kts | 206° |
| 2026-05-06 00:48 | 42.45978 | -70.95907 | 1804 ft | 144 kts | 204° |
| 2026-05-06 00:48 | 42.45076 | -70.96344 | 1621 ft | 131 kts | 205° |
| 2026-05-06 00:48 | 42.44249 | -70.96745 | 1452 ft | 123 kts | 204° |
| 2026-05-06 00:48 | 42.43451 | -70.97132 | 1295 ft | 119 kts | 204° |
| 2026-05-06 00:49 | 42.42678 | -70.97509 | 1139 ft | 118 kts | 204° |
| 2026-05-06 00:49 | 42.41921 | -70.97876 | 975 ft | 117 kts | 203° |
| 2026-05-06 00:49 | 42.41155 | -70.98249 | 827 ft | 119 kts | 202° |
| 2026-05-06 00:49 | 42.40366 | -70.98631 | 678 ft | 119 kts | 200° |
| 2026-05-06 00:50 | 42.39588 | -70.99010 | 538 ft | 120 kts | 201° |
| 2026-05-06 00:50 | 42.38832 | -70.99375 | 375 ft | 116 kts | 198° |
| 2026-05-06 00:50 | 42.38076 | -70.99737 | 206 ft | 116 kts | 199° |
| 2026-05-06 00:50 | 42.37326 | -71.00106 | 52 ft | 114 kts | 198° |
| 2026-05-06 00:51 | 42.36656 | -71.00427 | 15 ft | 84 kts | 200° |
| 2026-05-06 00:51 | 42.36261 | -71.00622 | 17 ft | 44 kts | 199° |
| 2026-05-06 00:51 | 42.36020 | -71.00752 | 13 ft | 24 kts | 212° |
| 2026-05-06 00:51 | 42.35926 | -71.00898 | 12 ft | 19 kts | 230° |
| 2026-05-06 00:52 | 42.35843 | -71.01035 | 14 ft | 15 kts | 235° |
| 2026-05-06 00:52 | 42.35836 | -71.01159 | 17 ft | 14 kts | 276° |
| 2026-05-06 00:52 | 42.35849 | -71.01295 | 22 ft | 14 kts | 278° |
| 2026-05-06 00:52 | 42.35865 | -71.01432 | 24 ft | 16 kts | 281° |
| 2026-05-06 00:53 | 42.35886 | -71.01568 | 24 ft | 14 kts | 280° |
| 2026-05-06 00:53 | 42.35902 | -71.01700 | 27 ft | 15 kts | 282° |
| 2026-05-06 00:53 | 42.35928 | -71.01836 | 25 ft | 15 kts | 291° |
| 2026-05-06 00:53 | 42.35981 | -71.01960 | 24 ft | 16 kts | 301° |
| 2026-05-06 00:54 | 42.36024 | -71.02052 | 24 ft | 5 kts | 310° |
| 2026-05-06 00:54 | 42.36055 | -71.02055 | 23 ft | 7 kts | 22° |
| 2026-05-06 00:54 | 42.36091 | -71.02031 | 23 ft | 4 kts | 17° |
| 2026-05-06 00:54 | 42.36115 | -71.02021 | 23 ft | 3 kts | 16° |
| 2026-05-06 00:55 | 42.36133 | -71.02015 | 23 ft | 2 kts | 14° |
| 2026-05-06 00:55 | 42.36140 | -71.02012 | 23 ft | 0 kts | 16° |
| 2026-05-06 00:55 | 42.36141 | -71.02012 | 23 ft | 1 kts | 16° |
| 2026-05-06 00:55 | 42.36146 | -71.02009 | 24 ft | 0 kts | 17° |